Time;durP1;ratioP1;P1;durP2;ratioP2;P2;SDS_P1;SDS_P2;PMS_P1;PMS_P2;Temp;Humidity;BMP_temperature;BMP_pressure;BME280_temperature;BME280_humidity;BME280_pressure;Samples;Min_cycle;Max_cycle;Signal;HPM_P1;HPM_P2
2022/12/28 00:02:21;;;;;;;6.78;1.50;;;;;;;;;;6201110;22;20038;-70
2022/12/28 00:04:48;;;;;;;3.90;1.67;;;;;;;;;;6213569;22;20030;-71
2022/12/28 00:07:15;;;;;;;4.45;1.90;;;;;;;;;;6218667;22;20416;-71
2022/12/28 00:09:42;;;;;;;4.75;1.90;;;;;;;;;;6225901;22;20098;-70
2022/12/28 00:12:10;;;;;;;7.53;1.95;;;;;;;;;;6215953;22;20043;-71
2022/12/28 00:14:37;;;;;;;6.95;2.58;;;;;;;;;;6196661;22;20020;-70
2022/12/28 00:17:03;;;;;;;4.72;1.88;;;;;;;;;;6247233;22;20079;-71
2022/12/28 00:19:30;;;;;;;3.85;1.95;;;;;;;;;;6112671;22;20066;-71
2022/12/28 00:21:57;;;;;;;4.32;1.85;;;;;;;;;;6222017;22;20019;-71
2022/12/28 00:24:25;;;;;;;6.88;2.17;;;;;;;;;;6234561;22;20134;-71
2022/12/28 00:26:52;;;;;;;4.72;2.00;;;;;;;;;;6256278;22;20053;-71
2022/12/28 00:29:20;;;;;;;4.60;1.80;;;;;;;;;;6201908;22;20027;-71
2022/12/28 00:31:47;;;;;;;4.53;1.77;;;;;;;;;;6235587;22;20046;-71
2022/12/28 00:34:14;;;;;;;4.78;1.98;;;;;;;;;;6235615;22;20035;-71
2022/12/28 00:36:40;;;;;;;5.47;2.00;;;;;;;;;;6256044;22;20019;-71
2022/12/28 00:39:10;;;;;;;3.97;1.75;;;;;;;;;;6198827;22;20564;-71
2022/12/28 00:41:37;;;;;;;4.47;2.35;;;;;;;;;;6214465;22;20031;-71
2022/12/28 00:44:04;;;;;;;4.60;2.13;;;;;;;;;;6237958;22;20062;-71
2022/12/28 00:46:33;;;;;;;4.53;1.83;;;;;;;;;;6242282;22;20016;-71
2022/12/28 00:49:00;;;;;;;4.45;2.17;;;;;;;;;;6202623;22;20023;-72
2022/12/28 00:51:27;;;;;;;6.53;2.00;;;;;;;;;;6245545;22;20061;-71
2022/12/28 00:53:54;;;;;;;6.13;2.28;;;;;;;;;;6210264;22;20033;-71
2022/12/28 00:56:26;;;;;;;7.00;2.30;;;;;;;;;;6197378;22;20025;-71
2022/12/28 00:58:56;;;;;;;5.38;1.95;;;;;;;;;;6097962;22;20084;-71
2022/12/28 01:01:26;;;;;;;5.28;1.80;;;;;;;;;;6175951;22;20026;-71
2022/12/28 01:03:56;;;;;;;7.40;1.88;;;;;;;;;;6204093;22;20357;-71
2022/12/28 01:06:24;;;;;;;5.68;1.95;;;;;;;;;;6220397;22;20030;-71
2022/12/28 01:08:51;;;;;;;6.97;1.80;;;;;;;;;;6225934;22;20023;-71
2022/12/28 01:11:19;;;;;;;7.82;2.38;;;;;;;;;;6253980;22;20019;-72
2022/12/28 01:13:46;;;;;;;5.25;2.25;;;;;;;;;;6242936;22;20425;-71
2022/12/28 01:16:13;;;;;;;7.03;2.08;;;;;;;;;;6236582;22;20027;-71
2022/12/28 01:18:42;;;;;;;5.18;2.13;;;;;;;;;;6163457;22;20130;-71
2022/12/28 01:21:12;;;;;;;5.30;2.08;;;;;;;;;;6233559;22;20534;-72
2022/12/28 01:23:41;;;;;;;7.22;2.25;;;;;;;;;;6231319;22;20047;-71
2022/12/28 01:26:08;;;;;;;5.03;2.42;;;;;;;;;;6222899;22;20023;-72
2022/12/28 01:28:42;;;;;;;5.50;1.83;;;;;;;;;;6187791;22;20030;-71
2022/12/28 01:31:18;;;;;;;6.30;2.10;;;;;;;;;;6229495;22;20027;-71
2022/12/28 01:33:45;;;;;;;4.15;1.85;;;;;;;;;;6217607;22;20130;-71
2022/12/28 01:36:21;;;;;;;4.32;1.88;;;;;;;;;;6207382;22;20038;-71
2022/12/28 01:38:48;;;;;;;5.93;2.00;;;;;;;;;;6177258;22;20029;-71
2022/12/28 01:41:16;;;;;;;5.72;1.88;;;;;;;;;;6174981;22;20019;-72
2022/12/28 01:43:51;;;;;;;4.88;2.08;;;;;;;;;;6236130;22;20084;-72
2022/12/28 01:46:20;;;;;;;4.55;2.10;;;;;;;;;;6262018;22;20030;-71
2022/12/28 01:48:50;;;;;;;9.27;2.13;;;;;;;;;;6202198;22;20024;-72
2022/12/28 01:51:17;;;;;;;7.35;2.20;;;;;;;;;;6220808;22;20020;-71
2022/12/28 01:53:55;;;;;;;6.50;1.88;;;;;;;;;;6214498;22;20073;-71
2022/12/28 01:56:30;;;;;;;6.03;2.00;;;;;;;;;;6164268;22;20035;-71
2022/12/28 01:58:57;;;;;;;5.75;1.83;;;;;;;;;;6086575;22;20034;-71
2022/12/28 02:01:25;;;;;;;7.65;2.17;;;;;;;;;;5994548;23;20030;-71
2022/12/28 02:03:53;;;;;;;4.97;2.15;;;;;;;;;;6163673;22;20078;-71
2022/12/28 02:06:20;;;;;;;7.93;1.80;;;;;;;;;;6181620;23;20096;-71
2022/12/28 02:08:52;;;;;;;5.18;1.90;;;;;;;;;;6253647;22;20029;-71
2022/12/28 02:11:20;;;;;;;4.70;1.80;;;;;;;;;;6130855;22;20115;-71
2022/12/28 02:13:50;;;;;;;5.65;1.83;;;;;;;;;;6178857;23;20114;-71
2022/12/28 02:16:17;;;;;;;3.30;1.77;;;;;;;;;;6164552;23;20030;-71
2022/12/28 02:18:46;;;;;;;5.93;1.92;;;;;;;;;;6169751;22;20049;-71
2022/12/28 02:21:20;;;;;;;5.93;2.10;;;;;;;;;;6195781;22;20181;-71
2022/12/28 02:24:07;;;;;;;2.92;1.63;;;;;;;;;;6232388;22;20018;-71
2022/12/28 02:26:48;;;;;;;5.63;1.90;;;;;;;;;;6196636;22;20026;-71
2022/12/28 02:29:42;;;;;;;5.25;2.15;;;;;;;;;;6030343;22;20025;-72
2022/12/28 02:32:15;;;;;;;5.85;1.90;;;;;;;;;;6092156;22;20136;-71
2022/12/28 02:34:43;;;;;;;5.25;1.83;;;;;;;;;;6092826;22;20030;-71
2022/12/28 02:37:17;;;;;;;6.97;2.10;;;;;;;;;;6222547;22;20022;-71
2022/12/28 02:39:47;;;;;;;5.88;2.20;;;;;;;;;;6203368;22;20428;-71
2022/12/28 02:42:15;;;;;;;4.32;1.65;;;;;;;;;;6232999;22;20034;-71
2022/12/28 02:50:15;;;;;;;6.25;2.00;;;;;;;;;;6057701;22;20029;-71
2022/12/28 02:52:59;;;;;;;3.35;1.40;;;;;;;;;;6056540;22;20030;-71
2022/12/28 02:58:36;;;;;;;4.38;1.90;;;;;;;;;;6171946;22;20071;-71
2022/12/28 03:01:09;;;;;;;4.85;1.88;;;;;;;;;;6199484;22;20074;-71
2022/12/28 03:03:41;;;;;;;4.65;2.03;;;;;;;;;;6164247;22;20045;-71
2022/12/28 03:09:03;;;;;;;5.30;1.77;;;;;;;;;;6176738;23;20057;-71
2022/12/28 03:11:34;;;;;;;5.80;2.03;;;;;;;;;;6070835;22;21783;-70
2022/12/28 03:14:02;;;;;;;3.80;1.67;;;;;;;;;;6157920;23;20022;-71
2022/12/28 03:16:30;;;;;;;5.15;1.90;;;;;;;;;;6055464;22;20026;-71
2022/12/28 03:32:46;;;;;;;4.80;1.90;;;;;;;;;;6213216;22;20056;-71
2022/12/28 03:35:16;;;;;;;6.00;2.03;;;;;;;;;;6127918;22;20032;-71
2022/12/28 03:37:47;;;;;;;3.95;1.88;;;;;;;;;;6225979;22;20407;-71
2022/12/28 03:40:18;;;;;;;4.15;1.55;;;;;;;;;;6229340;22;20026;-71
2022/12/28 03:45:33;;;;;;;5.65;1.85;;;;;;;;;;6215897;22;20948;-71
2022/12/28 03:48:01;;;;;;;6.07;2.35;;;;;;;;;;6157569;23;20022;-72
2022/12/28 03:50:30;;;;;;;4.28;1.65;;;;;;;;;;6074252;22;20022;-71
2022/12/28 03:52:58;;;;;;;4.85;1.67;;;;;;;;;;6114780;22;20030;-71
2022/12/28 03:55:25;;;;;;;5.15;2.20;;;;;;;;;;6199933;22;20033;-71
2022/12/28 03:57:52;;;;;;;5.70;1.98;;;;;;;;;;6164465;22;20175;-71
2022/12/28 04:00:18;;;;;;;2.97;1.58;;;;;;;;;;6182064;22;20085;-71
2022/12/28 04:02:45;;;;;;;4.72;2.20;;;;;;;;;;6220125;22;20416;-71
2022/12/28 04:05:12;;;;;;;4.40;1.58;;;;;;;;;;6164641;22;20473;-72
2022/12/28 04:07:40;;;;;;;3.33;1.75;;;;;;;;;;6200368;22;20037;-71
2022/12/28 04:10:11;;;;;;;3.72;1.60;;;;;;;;;;6177638;22;20030;-72
2022/12/28 04:12:38;;;;;;;4.95;1.73;;;;;;;;;;6173615;22;20042;-71
2022/12/28 04:15:05;;;;;;;4.47;1.60;;;;;;;;;;6131236;22;20082;-72
2022/12/28 04:17:35;;;;;;;3.42;1.60;;;;;;;;;;6198537;22;20303;-71
2022/12/28 04:20:02;;;;;;;3.83;1.85;;;;;;;;;;6192628;22;20028;-71
2022/12/28 04:22:28;;;;;;;5.30;1.80;;;;;;;;;;6197173;23;20045;-71
2022/12/28 04:24:57;;;;;;;2.90;1.50;;;;;;;;;;6152791;23;20022;-71
2022/12/28 04:27:24;;;;;;;4.90;2.05;;;;;;;;;;6184739;22;20028;-71
2022/12/28 04:29:50;;;;;;;4.22;1.80;;;;;;;;;;6166518;23;20026;-71
2022/12/28 04:32:17;;;;;;;4.50;1.95;;;;;;;;;;6214633;22;20032;-71
2022/12/28 04:34:45;;;;;;;6.88;1.90;;;;;;;;;;6165819;23;20076;-71
2022/12/28 04:37:12;;;;;;;3.80;1.70;;;;;;;;;;6170778;22;20038;-71
2022/12/28 04:39:40;;;;;;;7.07;1.92;;;;;;;;;;6164046;22;20032;-71
2022/12/28 04:42:08;;;;;;;3.70;1.52;;;;;;;;;;6222910;22;20035;-71
2022/12/28 04:44:35;;;;;;;2.95;1.50;;;;;;;;;;6105476;23;20068;-71
2022/12/28 04:47:02;;;;;;;3.42;1.50;;;;;;;;;;6075423;22;20042;-72
2022/12/28 04:49:29;;;;;;;4.68;2.17;;;;;;;;;;6058296;22;20029;-71
2022/12/28 04:51:56;;;;;;;4.85;2.05;;;;;;;;;;6177117;23;20425;-71
2022/12/28 04:54:23;;;;;;;6.10;1.90;;;;;;;;;;6189771;22;20027;-71
2022/12/28 04:56:52;;;;;;;3.92;1.67;;;;;;;;;;6217442;22;20026;-71
2022/12/28 04:59:20;;;;;;;5.03;2.22;;;;;;;;;;6199136;22;20458;-71
2022/12/28 05:01:47;;;;;;;5.53;2.20;;;;;;;;;;6218528;22;20019;-71
2022/12/28 05:04:14;;;;;;;4.40;2.15;;;;;;;;;;6207210;22;20117;-71
2022/12/28 05:06:40;;;;;;;5.90;2.22;;;;;;;;;;6223772;22;20026;-72
2022/12/28 05:09:07;;;;;;;4.95;2.13;;;;;;;;;;6256467;22;20034;-71
2022/12/28 05:11:37;;;;;;;5.40;2.08;;;;;;;;;;6244745;22;20023;-71
2022/12/28 05:14:03;;;;;;;6.07;2.40;;;;;;;;;;6227081;22;20023;-72
2022/12/28 05:16:35;;;;;;;4.60;2.13;;;;;;;;;;6233450;22;20538;-71
2022/12/28 05:19:05;;;;;;;5.72;2.30;;;;;;;;;;6216868;22;20023;-71
2022/12/28 05:21:32;;;;;;;4.50;2.17;;;;;;;;;;6218451;22;20023;-72
2022/12/28 05:23:59;;;;;;;5.20;2.38;;;;;;;;;;6154109;22;20023;-72
2022/12/28 05:26:27;;;;;;;4.43;2.10;;;;;;;;;;6235401;22;20031;-72
2022/12/28 05:28:55;;;;;;;6.13;2.38;;;;;;;;;;6216584;22;20019;-71
2022/12/28 05:31:22;;;;;;;6.97;2.22;;;;;;;;;;6229641;22;20033;-71
2022/12/28 05:33:51;;;;;;;5.83;2.97;;;;;;;;;;6180937;22;20039;-71
2022/12/28 05:36:20;;;;;;;5.85;2.55;;;;;;;;;;6192011;22;20038;-72
2022/12/28 05:38:50;;;;;;;4.28;2.15;;;;;;;;;;6140619;23;20020;-71
2022/12/28 05:41:20;;;;;;;6.15;2.30;;;;;;;;;;6201337;22;20015;-71
2022/12/28 05:43:47;;;;;;;6.45;2.10;;;;;;;;;;6186322;22;20058;-71
2022/12/28 05:46:15;;;;;;;6.38;2.28;;;;;;;;;;6243027;22;20019;-71
2022/12/28 05:48:42;;;;;;;5.78;2.50;;;;;;;;;;6219954;22;20034;-71
2022/12/28 05:51:12;;;;;;;7.38;2.30;;;;;;;;;;6228099;22;20023;-71
2022/12/28 05:53:46;;;;;;;6.43;2.17;;;;;;;;;;6227997;22;20031;-71
2022/12/28 05:56:13;;;;;;;9.80;2.55;;;;;;;;;;6246884;22;20027;-72
2022/12/28 05:58:41;;;;;;;7.00;2.42;;;;;;;;;;6171309;22;20086;-71
2022/12/28 06:01:11;;;;;;;6.05;2.33;;;;;;;;;;6213792;22;20027;-72
2022/12/28 06:03:38;;;;;;;4.25;1.95;;;;;;;;;;6212088;22;20030;-71
2022/12/28 06:06:06;;;;;;;4.70;2.20;;;;;;;;;;6228057;22;20031;-71
2022/12/28 06:08:34;;;;;;;6.78;2.38;;;;;;;;;;6229191;22;20023;-72
2022/12/28 06:11:02;;;;;;;4.53;2.20;;;;;;;;;;6231396;22;20103;-71
2022/12/28 06:13:29;;;;;;;5.82;2.50;;;;;;;;;;6180991;22;20031;-71
2022/12/28 06:15:56;;;;;;;3.65;2.03;;;;;;;;;;6223039;22;20023;-71
2022/12/28 06:18:23;;;;;;;5.65;2.22;;;;;;;;;;6249677;22;20103;-71
2022/12/28 06:20:50;;;;;;;6.47;2.40;;;;;;;;;;6243557;22;20020;-71
2022/12/28 06:23:17;;;;;;;4.93;2.20;;;;;;;;;;6190138;22;20031;-72
2022/12/28 06:25:45;;;;;;;5.35;2.17;;;;;;;;;;6233638;22;20108;-71
2022/12/28 06:28:12;;;;;;;5.13;1.98;;;;;;;;;;6221890;22;20101;-71
2022/12/28 06:30:39;;;;;;;5.63;2.30;;;;;;;;;;6234373;22;20023;-71
2022/12/28 06:33:08;;;;;;;4.85;1.90;;;;;;;;;;6227841;22;20026;-71
2022/12/28 06:35:35;;;;;;;5.57;2.10;;;;;;;;;;6197742;22;20031;-71
2022/12/28 06:38:05;;;;;;;5.05;2.00;;;;;;;;;;6219782;22;20026;-71
2022/12/28 06:40:32;;;;;;;7.97;2.20;;;;;;;;;;6235358;22;20084;-71
2022/12/28 06:43:00;;;;;;;5.38;2.40;;;;;;;;;;6237114;22;20023;-71
2022/12/28 06:45:27;;;;;;;5.55;2.40;;;;;;;;;;6172726;22;20043;-71
2022/12/28 06:47:54;;;;;;;5.82;2.25;;;;;;;;;;6220067;22;20023;-71
2022/12/28 06:50:22;;;;;;;;;;;;;;;;;;6250358;22;20023;-71
2022/12/28 06:52:49;;;;;;;5.03;2.00;;;;;;;;;;6167491;23;19919;-71
2022/12/28 06:55:16;;;;;;;3.33;1.88;;;;;;;;;;6171480;22;20046;-72
2022/12/28 06:57:43;;;;;;;7.00;2.28;;;;;;;;;;6217089;22;20023;-72
2022/12/28 07:00:12;;;;;;;6.00;2.13;;;;;;;;;;6216108;22;20024;-72
2022/12/28 07:02:39;;;;;;;5.25;1.95;;;;;;;;;;6231863;22;20024;-71
2022/12/28 07:05:09;;;;;;;6.78;2.20;;;;;;;;;;6173695;22;20130;-72
2022/12/28 07:07:36;;;;;;;4.55;2.45;;;;;;;;;;6214382;22;20047;-71
2022/12/28 07:10:04;;;;;;;4.15;2.10;;;;;;;;;;6228813;22;20490;-73
2022/12/28 07:12:31;;;;;;;3.72;2.13;;;;;;;;;;6181043;22;20133;-72
2022/12/28 07:14:58;;;;;;;4.72;2.03;;;;;;;;;;6207592;22;20049;-72
2022/12/28 07:17:26;;;;;;;3.88;1.83;;;;;;;;;;6189632;22;20173;-71
2022/12/28 07:19:54;;;;;;;3.95;2.00;;;;;;;;;;6233030;22;20020;-71
2022/12/28 07:22:21;;;;;;;4.07;1.85;;;;;;;;;;6214123;22;20053;-71
2022/12/28 07:24:47;;;;;;;4.80;2.00;;;;;;;;;;6229738;22;20068;-71
2022/12/28 07:27:14;;;;;;;3.60;1.92;;;;;;;;;;6250328;22;20041;-71
2022/12/28 07:29:41;;;;;;;5.47;2.08;;;;;;;;;;6214835;22;20188;-71
2022/12/28 07:32:08;;;;;;;6.78;2.08;;;;;;;;;;6235631;22;20088;-71
2022/12/28 07:34:36;;;;;;;3.55;1.83;;;;;;;;;;6197387;22;20341;-71
2022/12/28 07:37:06;;;;;;;3.92;1.80;;;;;;;;;;6218356;22;20073;-71
2022/12/28 07:39:34;;;;;;;4.20;1.90;;;;;;;;;;6257256;22;20170;-71
2022/12/28 07:42:05;;;;;;;3.65;1.88;;;;;;;;;;6204227;22;20023;-71
2022/12/28 07:44:32;;;;;;;4.38;2.00;;;;;;;;;;6117920;23;20145;-71
2022/12/28 07:46:59;;;;;;;3.78;1.98;;;;;;;;;;6140483;23;20036;-71
2022/12/28 07:49:26;;;;;;;3.67;1.85;;;;;;;;;;6144398;23;20104;-72
2022/12/28 07:51:58;;;;;;;3.17;1.67;;;;;;;;;;6166967;22;20027;-71
2022/12/28 07:54:25;;;;;;;3.35;1.77;;;;;;;;;;6158925;22;20101;-71
2022/12/28 07:56:57;;;;;;;4.30;1.80;;;;;;;;;;6080605;22;20029;-71
2022/12/28 07:59:24;;;;;;;3.92;1.95;;;;;;;;;;6061245;22;20169;-71
2022/12/28 08:01:51;;;;;;;4.57;2.08;;;;;;;;;;6081562;22;20105;-71
2022/12/28 08:04:19;;;;;;;4.53;2.00;;;;;;;;;;6028519;22;20036;-71
2022/12/28 08:06:46;;;;;;;6.20;2.55;;;;;;;;;;6071031;22;20188;-71
2022/12/28 08:09:24;;;;;;;4.38;1.65;;;;;;;;;;6039012;22;20041;-72
2022/12/28 08:11:58;;;;;;;5.40;2.10;;;;;;;;;;6068684;22;20395;-71
2022/12/28 08:14:25;;;;;;;3.75;2.00;;;;;;;;;;6059229;23;20022;-71
2022/12/28 08:16:51;;;;;;;3.92;1.90;;;;;;;;;;6069620;23;20025;-71
2022/12/28 08:19:18;;;;;;;4.68;2.08;;;;;;;;;;6052013;22;20029;-71
2022/12/28 08:21:47;;;;;;;3.88;2.08;;;;;;;;;;6083903;22;20026;-71
2022/12/28 08:24:19;;;;;;;4.45;1.88;;;;;;;;;;6064178;23;20120;-71
2022/12/28 08:26:47;;;;;;;4.85;2.03;;;;;;;;;;6071954;23;20021;-71
2022/12/28 08:29:15;;;;;;;3.63;1.90;;;;;;;;;;6099561;22;20095;-72
2022/12/28 08:31:42;;;;;;;;;;;;;;;;;;6067407;23;20033;-71
2022/12/28 08:34:11;;;;;;;3.45;2.03;;;;;;;;;;6056549;22;20212;-71
2022/12/28 08:36:38;;;;;;;5.22;2.00;;;;;;;;;;6028362;23;20050;-71
2022/12/28 08:39:07;;;;;;;7.00;1.85;;;;;;;;;;6035114;23;20070;-72
2022/12/28 08:41:37;;;;;;;;;;;;;;;;;;6045191;23;21409;-71
2022/12/28 08:44:06;;;;;;;4.57;1.95;;;;;;;;;;6057544;23;19926;-71
2022/12/28 08:46:39;;;;;;;5.68;2.00;;;;;;;;;;6089055;22;20065;-71
2022/12/28 08:49:11;;;;;;;4.63;2.28;;;;;;;;;;6052144;22;20119;-71
2022/12/28 08:51:40;;;;;;;5.18;1.88;;;;;;;;;;6036648;22;20030;-72
2022/12/28 08:54:21;;;;;;;5.88;2.17;;;;;;;;;;6060049;22;20028;-72
2022/12/28 08:56:49;;;;;;;4.35;2.20;;;;;;;;;;6217522;22;20033;-71
2022/12/28 08:59:25;;;;;;;3.97;1.85;;;;;;;;;;6219080;22;20044;-71
2022/12/28 09:01:59;;;;;;;4.13;1.98;;;;;;;;;;6167252;22;20024;-71
2022/12/28 09:04:28;;;;;;;7.53;2.17;;;;;;;;;;6169202;22;20381;-71
2022/12/28 09:06:57;;;;;;;;;;;;;;;;;;6224449;23;20164;-71
2022/12/28 09:09:30;;;;;;;4.20;2.10;;;;;;;;;;6184156;22;20045;-71
2022/12/28 09:12:07;;;;;;;4.22;2.22;;;;;;;;;;6212180;22;20090;-71
2022/12/28 09:14:41;;;;;;;3.35;1.92;;;;;;;;;;6199576;22;20107;-71
2022/12/28 09:17:12;;;;;;;5.40;2.10;;;;;;;;;;6212446;22;20031;-71
2022/12/28 09:19:44;;;;;;;5.00;2.20;;;;;;;;;;6192065;23;20024;-71
2022/12/28 09:22:11;;;;;;;4.05;1.95;;;;;;;;;;6231947;22;20024;-71
2022/12/28 09:24:40;;;;;;;3.20;1.83;;;;;;;;;;6213053;22;20027;-71
2022/12/28 09:27:07;;;;;;;5.45;2.30;;;;;;;;;;6195343;22;20047;-71
2022/12/28 09:29:35;;;;;;;5.80;2.10;;;;;;;;;;6204076;22;20142;-70
2022/12/28 09:32:03;;;;;;;4.80;1.98;;;;;;;;;;6202463;22;20023;-72
2022/12/28 09:34:34;;;;;;;3.90;1.90;;;;;;;;;;6124274;23;20025;-70
2022/12/28 09:37:04;;;;;;;3.88;2.17;;;;;;;;;;6200241;22;20027;-71
2022/12/28 09:39:34;;;;;;;7.10;2.20;;;;;;;;;;6212143;22;20114;-70
2022/12/28 09:42:02;;;;;;;4.68;1.98;;;;;;;;;;6203257;22;20076;-71
2022/12/28 09:44:50;;;;;;;5.70;2.60;;;;;;;;;;6120853;22;20576;-71
2022/12/28 09:47:28;;;;;;;5.15;2.05;;;;;;;;;;6188430;22;20027;-71
2022/12/28 09:50:09;;;;;;;4.75;2.13;;;;;;;;;;6198146;22;20023;-71
2022/12/28 09:52:47;;;;;;;4.82;2.00;;;;;;;;;;6199015;22;20023;-71
2022/12/28 09:55:15;;;;;;;4.55;1.80;;;;;;;;;;6175196;22;20061;-71
2022/12/28 09:57:44;;;;;;;4.05;1.98;;;;;;;;;;6199314;22;20454;-71
2022/12/28 10:00:34;;;;;;;5.60;2.15;;;;;;;;;;6168784;22;20031;-70
2022/12/28 10:03:12;;;;;;;6.45;2.00;;;;;;;;;;6218739;22;20114;-71
2022/12/28 10:05:42;;;;;;;3.15;1.73;;;;;;;;;;6113521;23;20028;-71
2022/12/28 10:08:13;;;;;;;4.05;1.88;;;;;;;;;;6132088;23;20035;-71
2022/12/28 10:10:41;;;;;;;5.65;2.05;;;;;;;;;;6257678;22;20023;-71
2022/12/28 10:13:16;;;;;;;7.10;2.27;;;;;;;;;;6217211;22;20023;-71
2022/12/28 10:15:45;;;;;;;3.65;2.00;;;;;;;;;;6258734;22;20316;-70
2022/12/28 10:18:11;;;;;;;;;;;;;;;;;;6217547;22;20022;-72
2022/12/28 10:20:40;;;;;;;4.97;1.95;;;;;;;;;;6177909;23;19950;-71
2022/12/28 10:23:07;;;;;;;7.30;2.10;;;;;;;;;;6183966;22;20015;-71
2022/12/28 10:25:38;;;;;;;8.82;1.83;;;;;;;;;;6087487;22;20117;-71
2022/12/28 10:28:09;;;;;;;5.28;1.90;;;;;;;;;;6096048;23;20039;-71
2022/12/28 10:30:45;;;;;;;4.18;1.80;;;;;;;;;;6113573;23;20025;-71
2022/12/28 10:33:17;;;;;;;2.78;1.52;;;;;;;;;;6159610;23;20017;-71
2022/12/28 10:35:57;;;;;;;3.95;1.80;;;;;;;;;;6092251;23;20051;-71
2022/12/28 10:38:32;;;;;;;5.18;1.70;;;;;;;;;;6137766;22;20027;-71
2022/12/28 10:41:06;;;;;;;3.55;1.70;;;;;;;;;;6220438;22;20023;-71
2022/12/28 10:43:40;;;;;;;4.60;1.70;;;;;;;;;;6222317;22;20027;-71
2022/12/28 10:46:07;;;;;;;5.13;1.58;;;;;;;;;;6123658;22;20040;-71
2022/12/28 10:48:38;;;;;;;4.95;1.80;;;;;;;;;;6123107;22;20019;-71
2022/12/28 10:51:14;;;;;;;3.65;1.70;;;;;;;;;;6241549;22;20163;-71
2022/12/28 10:53:44;;;;;;;5.18;1.88;;;;;;;;;;6234556;22;20027;-71
2022/12/28 10:56:21;;;;;;;4.13;1.60;;;;;;;;;;6162543;22;20036;-71
2022/12/28 10:58:51;;;;;;;3.97;1.60;;;;;;;;;;6217956;22;20046;-71
2022/12/28 11:01:26;;;;;;;5.45;1.60;;;;;;;;;;6201393;22;20072;-71
2022/12/28 11:04:00;;;;;;;3.90;1.58;;;;;;;;;;6185237;22;20030;-72
2022/12/28 11:06:33;;;;;;;4.25;1.67;;;;;;;;;;6208902;22;20131;-71
2022/12/28 11:09:07;;;;;;;9.85;1.77;;;;;;;;;;6219376;22;20092;-71
2022/12/28 11:11:36;;;;;;;7.13;1.75;;;;;;;;;;6206402;22;20023;-70
2022/12/28 11:14:15;;;;;;;2.67;1.50;;;;;;;;;;6202428;22;20112;-72
2022/12/28 11:16:50;;;;;;;3.63;1.40;;;;;;;;;;6177816;22;20185;-71
2022/12/28 11:19:19;;;;;;;5.18;1.48;;;;;;;;;;6170669;22;20054;-71
2022/12/28 11:21:59;;;;;;;3.38;1.30;;;;;;;;;;6222904;22;20023;-71
2022/12/28 11:24:33;;;;;;;4.72;1.50;;;;;;;;;;6213092;22;20094;-71
2022/12/28 11:27:19;;;;;;;4.35;1.40;;;;;;;;;;6180920;22;20062;-71
2022/12/28 11:29:51;;;;;;;3.30;1.50;;;;;;;;;;6229658;22;20027;-71
2022/12/28 11:32:21;;;;;;;3.03;1.27;;;;;;;;;;6204718;22;20098;-70
2022/12/28 11:34:49;;;;;;;3.67;1.63;;;;;;;;;;6065906;23;20036;-71
2022/12/28 11:37:18;;;;;;;4.38;1.40;;;;;;;;;;6061181;22;20053;-71
2022/12/28 11:39:51;;;;;;;2.30;1.20;;;;;;;;;;6193274;22;20034;-70
2022/12/28 11:42:33;;;;;;;2.22;1.10;;;;;;;;;;6214103;22;20024;-70
2022/12/28 11:45:00;;;;;;;2.13;1.20;;;;;;;;;;6167470;22;20029;-71
2022/12/28 11:47:33;;;;;;;2.50;1.20;;;;;;;;;;6184811;22;20085;-71
2022/12/28 11:50:22;;;;;;;2.38;1.20;;;;;;;;;;6181086;23;20032;-70
2022/12/28 11:52:52;;;;;;;3.67;1.27;;;;;;;;;;6202841;22;20023;-70
2022/12/28 11:55:39;;;;;;;2.10;1.20;;;;;;;;;;6172463;22;20034;-71
2022/12/28 11:58:24;;;;;;;3.20;1.10;;;;;;;;;;6220956;22;20081;-71
2022/12/28 12:00:52;;;;;;;2.20;1.20;;;;;;;;;;6183206;22;20041;-71
2022/12/28 12:03:48;;;;;;;2.25;1.10;;;;;;;;;;6086825;23;20028;-71
2022/12/28 12:06:34;;;;;;;2.13;1.08;;;;;;;;;;5993005;23;20023;-70
2022/12/28 12:09:26;;;;;;;3.03;1.30;;;;;;;;;;5999112;23;20024;-71
2022/12/28 12:11:54;;;;;;;3.35;1.02;;;;;;;;;;6258688;22;20094;-71
2022/12/28 12:14:40;;;;;;;2.80;1.23;;;;;;;;;;6229493;22;20111;-71
2022/12/28 12:17:25;;;;;;;5.53;1.13;;;;;;;;;;6178222;22;20031;-71
2022/12/28 12:20:00;;;;;;;2.80;1.20;;;;;;;;;;6257080;22;20096;-70
2022/12/28 12:22:31;;;;;;;2.72;0.90;;;;;;;;;;6240538;22;20027;-71
2022/12/28 12:25:10;;;;;;;3.25;1.10;;;;;;;;;;6222095;22;20286;-71
2022/12/28 12:27:40;;;;;;;2.25;1.00;;;;;;;;;;6228311;22;20023;-71
2022/12/28 12:30:14;;;;;;;1.67;0.90;;;;;;;;;;6215707;22;20487;-70
2022/12/28 12:32:45;;;;;;;2.00;1.00;;;;;;;;;;6231176;22;20122;-70
2022/12/28 12:35:19;;;;;;;2.65;1.10;;;;;;;;;;6122679;23;20048;-71
2022/12/28 12:37:53;;;;;;;3.20;1.20;;;;;;;;;;6138499;22;20034;-70
2022/12/28 12:40:43;;;;;;;1.75;1.00;;;;;;;;;;6239284;22;20031;-70
2022/12/28 12:43:36;;;;;;;2.78;1.20;;;;;;;;;;6192611;22;20023;-70
2022/12/28 12:46:18;;;;;;;2.83;1.10;;;;;;;;;;6141168;22;20023;-71
2022/12/28 12:49:01;;;;;;;3.38;1.35;;;;;;;;;;6197756;22;20210;-71
2022/12/28 12:51:33;;;;;;;7.80;1.33;;;;;;;;;;6174479;22;20031;-71
2022/12/28 12:54:21;;;;;;;3.67;1.27;;;;;;;;;;6196015;22;20098;-71
2022/12/28 12:59:53;;;;;;;1.60;1.00;;;;;;;;;;6057842;23;20030;-71
2022/12/28 13:02:37;;;;;;;1.98;1.00;;;;;;;;;;6030043;23;20042;-72
2022/12/28 13:07:56;;;;;;;4.38;1.30;;;;;;;;;;5003568;27;20430;-72
2022/12/28 13:10:35;;;;;;;2.92;1.20;;;;;;;;;;4975670;28;20053;-73
2022/12/28 13:13:07;;;;;;;5.85;1.25;;;;;;;;;;4931557;28;20062;-72
2022/12/28 18:13:22;;;;;;;8.02;2.03;;;;;;;;;;6159583;22;1492980;-72
2022/12/28 18:15:51;;;;;;;4.05;1.70;;;;;;;;;;6135172;23;20091;-71
2022/12/28 18:18:18;;;;;;;7.40;1.95;;;;;;;;;;6084807;23;20017;-72
2022/12/28 18:20:45;;;;;;;7.28;2.65;;;;;;;;;;6079649;23;20048;-71
2022/12/28 18:23:12;;;;;;;5.40;1.85;;;;;;;;;;6121306;23;20029;-74
2022/12/28 18:25:41;;;;;;;4.85;1.88;;;;;;;;;;5984702;23;20225;-72
2022/12/28 18:28:08;;;;;;;4.63;1.77;;;;;;;;;;5965022;23;20031;-72
2022/12/28 18:30:40;;;;;;;5.13;2.05;;;;;;;;;;5956521;23;20027;-72
2022/12/28 18:33:22;;;;;;;6.78;1.83;;;;;;;;;;5971229;23;20022;-72
2022/12/28 18:35:50;;;;;;;3.40;1.65;;;;;;;;;;6014339;23;20130;-72
2022/12/28 18:38:20;;;;;;;7.30;1.88;;;;;;;;;;6043753;23;20074;-72
2022/12/28 18:40:50;;;;;;;4.50;1.85;;;;;;;;;;5988381;23;20032;-72
2022/12/28 18:43:17;;;;;;;7.03;2.20;;;;;;;;;;6014499;23;20105;-72
2022/12/28 18:45:53;;;;;;;5.20;2.05;;;;;;;;;;6062648;23;20033;-72
2022/12/28 18:51:12;;;;;;;4.40;1.95;;;;;;;;;;5036216;27;20507;-71
2022/12/28 18:53:43;;;;;;;6.25;1.98;;;;;;;;;;4986352;28;20064;-74
2022/12/28 18:56:17;;;;;;;5.15;1.98;;;;;;;;;;4946551;28;20070;-74
2022/12/28 19:01:39;;;;;;;8.43;1.85;;;;;;;;;;4956174;27;20507;-72
2022/12/28 19:04:12;;;;;;;3.78;1.70;;;;;;;;;;4918889;28;20113;-71
2022/12/28 19:06:42;;;;;;;4.95;1.60;;;;;;;;;;4952404;28;20133;-72
